Reecon Whale — 9HA2885 — position and weather

sailwx.info

Track history (hours):
 
Tides and Currents Weather Stations Pressure Air Temp Water Temp Dewpoint Dewpoint Depression Visibility Wind Speed Wind Dir Waves Ship Positions

Reecon Whale

Last reported at 2017-Dec-11 12:58 UTC. Time now 2017-Dec-11 13:21 UTC.
Position N 44°16' E 008°27'.

Length 145 m; draft 7.3 m.

Type: Ship (hazmat cat D). MMSI: 256579000.

Date/timePositionNaut miles runAvg speedWind from/ knotsBaromVisibWave heightAir tempDewpointWater temp
2017-Dec-11 12:58N 44°16' E 008°27'0 0.0
2017-Dec-11 12:28N 44°16' E 008°27'0 0.0
2017-Dec-11 11:58N 44°16' E 008°27'0 0.0
2017-Dec-11 11:28N 44°16' E 008°27'0 0.0
2017-Dec-11 10:58N 44°16' E 008°27'0 0.0
2017-Dec-11 10:28N 44°16' E 008°27'0 0.0
2017-Dec-11 09:58N 44°16' E 008°27'0 0.0
2017-Dec-11 09:22N 44°16' E 008°27'0 0.0
2017-Dec-11 08:58N 44°16' E 008°27'0 0.0
2017-Dec-11 08:28N 44°16' E 008°27'1 1.4
2017-Dec-11 08:00N 44°16' E 008°28'2 3.8
2017-Dec-11 07:31N 44°17' E 008°30'0 0.2
2017-Dec-11 07:00N 44°17' E 008°30'1 1.3
2017-Dec-11 06:30N 44°18' E 008°30'0 0.8
2017-Dec-11 05:59N 44°17' E 008°30'0 0.2
2017-Dec-11 05:26N 44°18' E 008°30'0 0.1
2017-Dec-11 04:59N 44°18' E 008°30'0 0.0
2017-Dec-11 04:29N 44°18' E 008°30'0 0.0
2017-Dec-11 03:59N 44°18' E 008°30'0 0.0
2017-Dec-11 03:29N 44°18' E 008°30'0 0.0
2017-Dec-11 02:59N 44°18' E 008°30'0 0.1
2017-Dec-11 02:26N 44°18' E 008°30'0 0.1
2017-Dec-11 01:59N 44°18' E 008°30'0 0.0
2017-Dec-11 01:29N 44°18' E 008°30'0 0.0
2017-Dec-11 00:59N 44°18' E 008°30'0 0.0
2017-Dec-11 00:26N 44°18' E 008°30'0 0.0
2017-Dec-10 23:59N 44°18' E 008°30'0 0.0
2017-Dec-10 23:29N 44°18' E 008°30'0 0.0
2017-Dec-10 22:59N 44°18' E 008°30'0 0.0
2017-Dec-10 22:26N 44°18' E 008°30'0 0.0
2017-Dec-10 21:59N 44°18' E 008°30'0 0.0
2017-Dec-10 21:26N 44°18' E 008°30'0 0.0
2017-Dec-10 20:56N 44°18' E 008°30'0 0.1
2017-Dec-10 20:29N 44°18' E 008°30'0 0.0
2017-Dec-10 19:56N 44°18' E 008°30'0 0.0
2017-Dec-10 19:29N 44°18' E 008°30'0 0.0
2017-Dec-10 18:56N 44°18' E 008°30'0 0.1
2017-Dec-10 18:26N 44°18' E 008°30'0 0.1
2017-Dec-10 17:59N 44°18' E 008°30'0 0.0
2017-Dec-10 17:26N 44°18' E 008°30'0 0.0
2017-Dec-10 16:56N 44°18' E 008°30'0 0.0
2017-Dec-10 16:29N 44°18' E 008°30'0 0.0
2017-Dec-10 15:59N 44°18' E 008°30'0 0.0
2017-Dec-10 15:29N 44°18' E 008°30'0 0.0
2017-Dec-10 14:59N 44°18' E 008°30'0 0.0
2017-Dec-10 14:29N 44°18' E 008°30'0 0.1
2017-Dec-10 13:56N 44°18' E 008°30'0 0.1
2017-Dec-10 13:29N 44°18' E 008°30'0 0.0
2017-Dec-10 12:59N 44°18' E 008°30'0 0.1
2017-Dec-10 12:29N 44°18' E 008°30'0 0.1
2017-Dec-10 11:59N 44°18' E 008°30'0 0.0
2017-Dec-10 11:26N 44°18' E 008°30'0 0.1
2017-Dec-10 10:59N 44°18' E 008°30'2 4.3
2017-Dec-10 10:30N 44°16' E 008°32'510.7
2017-Dec-10 10:00N 44°14' E 008°38'611.3
2017-Dec-10 09:30N 44°12' E 008°46'611.4
2017-Dec-10 09:00N 44°09' E 008°53'611.4
2017-Dec-10 08:30N 44°07' E 009°00'611.4
2017-Dec-10 08:00N 44°05' E 009°08'611.3
2017-Dec-10 07:30N 44°03' E 009°15'611.4
2017-Dec-10 07:00N 44°02' E 009°23'611.4
2017-Dec-10 06:30N 44°01' E 009°30'611.1
2017-Dec-10 06:00N 43°59' E 009°38'611.7
2017-Dec-10 05:30N 43°59' E 009°46'5 9.6
2017-Dec-10 05:00N 44°00' E 009°52'510.8
2017-Dec-10 04:30N 44°06' E 009°51'1 1.5
2017-Dec-10 04:00N 44°06' E 009°51'0 0.0
2017-Dec-10 03:30N 44°06' E 009°51'0 0.0
2017-Dec-10 02:57N 44°06' E 009°51'0 0.0
2017-Dec-10 02:30N 44°06' E 009°51'0 0.0
2017-Dec-10 02:00N 44°06' E 009°51'0 0.0
2017-Dec-10 01:30N 44°06' E 009°51'0 0.0
2017-Dec-10 01:00N 44°06' E 009°51'0 0.0
2017-Dec-10 00:24N 44°06' E 009°51'0 0.0
2017-Dec-10 00:00N 44°06' E 009°51'0 0.0
2017-Dec-09 23:24N 44°06' E 009°51'0 0.0
2017-Dec-09 23:00N 44°06' E 009°51'0 0.0
2017-Dec-09 22:27N 44°06' E 009°51'0 0.0
2017-Dec-09 21:57N 44°06' E 009°51'0 0.0
2017-Dec-09 21:27N 44°06' E 009°51'0 0.0
2017-Dec-09 20:57N 44°06' E 009°51'0 0.0
2017-Dec-09 20:30N 44°06' E 009°51'0 0.0
2017-Dec-09 20:00N 44°06' E 009°51'0 0.0
2017-Dec-09 19:30N 44°06' E 009°51'0 0.0
2017-Dec-09 18:54N 44°06' E 009°51'0 0.1
2017-Dec-09 18:30N 44°06' E 009°51'2 4.0
2017-Dec-09 18:00N 44°04' E 009°51'3 5.1
2017-Dec-09 17:30N 44°02' E 009°54'2 3.0
2017-Dec-09 16:56N 44°01' E 009°55'2 4.8
2017-Dec-09 16:30N 43°60' E 009°54'1 1.2
2017-Dec-09 16:00N 43°59' E 009°53'0 0.0
2017-Dec-09 15:24N 43°59' E 009°53'0 0.0
2017-Dec-09 15:00N 43°59' E 009°53'0 0.0
2017-Dec-09 14:30N 43°59' E 009°53'0 0.1
2017-Dec-09 14:00N 43°59' E 009°53'0 0.0
2017-Dec-09 13:30N 43°59' E 009°53'0 0.0
2017-Dec-09 13:00N 43°59' E 009°53'0 0.0
2017-Dec-09 12:24N 43°59' E 009°53'0 0.0
2017-Dec-09 12:00N 43°59' E 009°53'0 0.0
2017-Dec-09 11:30N 43°59' E 009°53'0 0.0
2017-Dec-09 11:00N 43°59' E 009°53'0 0.0
2017-Dec-09 10:30N 43°59' E 009°53'0 0.0
2017-Dec-09 10:00N 43°59' E 009°53'0 0.0
2017-Dec-09 09:30N 43°59' E 009°53'0 0.2
2017-Dec-09 08:57N 43°59' E 009°53'0 0.0
2017-Dec-09 08:21N 43°59' E 009°53'0 0.1
2017-Dec-09 07:57N 43°59' E 009°53'0 0.1
2017-Dec-09 07:27N 43°59' E 009°53'0 0.1
2017-Dec-09 06:57N 43°59' E 009°53'0 0.0
2017-Dec-09 06:30N 43°59' E 009°53'0 0.0
2017-Dec-09 06:00N 43°59' E 009°53'0 0.0
2017-Dec-09 05:24N 43°59' E 009°53'0 0.1
2017-Dec-09 04:57N 43°59' E 009°53'0 0.1
2017-Dec-09 04:30N 43°59' E 009°53'0 0.1
2017-Dec-09 03:57N 43°59' E 009°53'0 0.1
2017-Dec-09 03:27N 43°59' E 009°53'0 0.0
2017-Dec-09 02:57N 43°59' E 009°53'0 0.0
2017-Dec-09 02:30N 43°59' E 009°53'0 0.1
2017-Dec-09 02:00N 43°59' E 009°53'0 0.1
2017-Dec-09 01:30N 43°59' E 009°53'0 0.0
2017-Dec-09 01:00N 43°59' E 009°53'0 0.2
2017-Dec-09 00:30N 43°59' E 009°53'0 0.1
2017-Dec-09 00:00N 43°60' E 009°53'0 0.0
2017-Dec-08 23:27N 43°59' E 009°53'0 0.0
2017-Dec-08 23:00N 43°60' E 009°53'0 0.1
2017-Dec-08 22:27N 43°60' E 009°53'0 0.0
2017-Dec-08 21:57N 43°60' E 009°53'0 0.1
2017-Dec-08 21:30N 43°60' E 009°53'0 0.1
2017-Dec-08 21:00N 43°60' E 009°53'0 0.0
2017-Dec-08 20:30N 43°60' E 009°53'0 0.1
2017-Dec-08 20:00N 43°59' E 009°53'0 0.1
2017-Dec-08 19:24N 43°59' E 009°53'0 0.0
2017-Dec-08 19:00N 43°59' E 009°53'0 0.0
2017-Dec-08 18:30N 43°59' E 009°53'0 0.0
2017-Dec-08 17:57N 43°59' E 009°53'0 0.1
2017-Dec-08 17:27N 43°59' E 009°53'0 0.0
2017-Dec-08 16:51N 43°59' E 009°53'0 0.0
2017-Dec-08 16:27N 43°59' E 009°53'0 0.1
2017-Dec-08 16:00N 43°59' E 009°53'0 0.1
2017-Dec-08 15:30N 43°59' E 009°53'0 0.2
2017-Dec-08 14:54N 43°59' E 009°53'0 0.0
2017-Dec-08 14:27N 43°59' E 009°53'0 0.1
2017-Dec-08 14:00N 43°59' E 009°53'0 0.2
2017-Dec-08 13:27N 43°59' E 009°52'0 0.1
2017-Dec-08 13:00N 43°59' E 009°52'0 0.4
2017-Dec-08 12:18N 43°59' E 009°52'0 0.1
2017-Dec-08 12:00N 43°59' E 009°52'0 0.1
2017-Dec-08 11:30N 43°59' E 009°52'0 0.1
2017-Dec-08 11:00N 43°59' E 009°52'0 0.1
2017-Dec-08 10:30N 43°59' E 009°52'0 0.2
2017-Dec-08 10:00N 43°59' E 009°52'0 0.2
2017-Dec-08 09:30N 43°59' E 009°52'0 0.1
2017-Dec-08 09:00N 43°59' E 009°52'0 0.0
2017-Dec-08 08:30N 43°59' E 009°52'0 0.1
2017-Dec-08 07:57N 43°59' E 009°52'0 0.1
2017-Dec-08 07:30N 43°59' E 009°52'0 0.1
2017-Dec-08 06:54N 43°59' E 009°52'0 0.1
2017-Dec-08 06:27N 43°59' E 009°52'0 0.1
2017-Dec-08 05:57N 43°59' E 009°52'0 0.1
2017-Dec-08 05:24N 43°59' E 009°52'0 0.1
2017-Dec-08 04:39N 43°59' E 009°52'0 0.2
2017-Dec-08 04:30N 43°59' E 009°51'0 0.1
2017-Dec-08 04:00N 43°59' E 009°51'0 0.1
2017-Dec-08 03:24N 43°59' E 009°51'0 0.1
2017-Dec-08 03:00N 43°59' E 009°51'0 0.1
2017-Dec-08 02:30N 43°59' E 009°51'0 0.1
2017-Dec-08 01:51N 43°59' E 009°51'0 0.6
2017-Dec-08 01:24N 43°58' E 009°51'0 0.0
2017-Dec-08 01:00N 43°58' E 009°51'0 0.1
2017-Dec-08 00:30N 43°59' E 009°51'0 0.1
2017-Dec-08 00:00N 43°58' E 009°51'0 0.0
2017-Dec-07 23:30N 43°58' E 009°51'0 0.1
2017-Dec-07 23:00N 43°58' E 009°51'0 0.1
2017-Dec-07 22:30N 43°58' E 009°51'0 0.0
2017-Dec-07 22:00N 43°58' E 009°51'0 0.1
2017-Dec-07 21:30N 43°58' E 009°51'0 0.0
2017-Dec-07 20:57N 43°58' E 009°51'0 0.0
2017-Dec-07 20:30N 43°58' E 009°51'0 0.0
2017-Dec-07 20:00N 43°58' E 009°51'0 0.0
2017-Dec-07 19:30N 43°58' E 009°51'0 0.0
2017-Dec-07 19:00N 43°58' E 009°51'0 0.2
2017-Dec-07 18:30N 43°58' E 009°51'0 0.0
2017-Dec-07 18:00N 43°58' E 009°51'0 0.0
2017-Dec-07 17:30N 43°58' E 009°51'0 0.0
2017-Dec-07 17:00N 43°58' E 009°51'0 0.0
2017-Dec-07 16:30N 43°58' E 009°51'0 0.0
2017-Dec-07 16:00N 43°58' E 009°51'0 0.2
2017-Dec-07 15:30N 43°58' E 009°51'0 0.0
2017-Dec-07 15:00N 43°58' E 009°51'0 0.5
2017-Dec-07 14:30N 43°58' E 009°51'0 0.1
2017-Dec-07 14:00N 43°58' E 009°51'0 0.1
2017-Dec-07 13:30N 43°58' E 009°51'0 0.3
2017-Dec-07 13:00N 43°58' E 009°51'510.8
2017-Dec-07 12:30N 43°54' E 009°46'510.6
2017-Dec-07 12:00N 43°56' E 009°39'611.5
2017-Dec-07 11:30N 43°60' E 009°33'711.5
2017-Dec-07 10:55N 44°03' E 009°25'511.2
2017-Dec-07 10:30N 44°06' E 009°20'511.0
2017-Dec-07 10:00N 44°09' E 009°14'611.3
2017-Dec-07 09:30N 44°13' E 009°08'611.3
2017-Dec-07 09:00N 44°17' E 009°02'611.1
2017-Dec-07 08:30N 44°21' E 008°57'4 8.4
2017-Dec-07 08:01N 44°24' E 008°53'0 0.3
2017-Dec-07 07:29N 44°24' E 008°53'0 0.0
2017-Dec-07 06:56N 44°24' E 008°53'0 0.0
2017-Dec-07 06:26N 44°24' E 008°53'0 0.0
2017-Dec-07 05:59N 44°24' E 008°53'0 0.0
2017-Dec-07 05:26N 44°24' E 008°53'0 0.0
2017-Dec-07 04:59N 44°24' E 008°53'0 0.0
2017-Dec-07 04:29N 44°24' E 008°53'0 0.0
2017-Dec-07 03:59N 44°24' E 008°53'0 0.0
2017-Dec-07 03:29N 44°24' E 008°53'0 0.0
2017-Dec-07 02:59N 44°24' E 008°53'0 0.0
2017-Dec-07 02:29N 44°24' E 008°53'0 0.0
2017-Dec-07 01:59N 44°24' E 008°53'0 0.0
2017-Dec-07 01:29N 44°24' E 008°53'0 0.0
2017-Dec-07 00:59N 44°24' E 008°53'0 0.0
2017-Dec-07 00:29N 44°24' E 008°53'0 0.0
2017-Dec-06 23:59N 44°24' E 008°53'0 0.0
2017-Dec-06 23:29N 44°24' E 008°53'0 0.0
2017-Dec-06 22:59N 44°24' E 008°53'0 0.0
2017-Dec-06 22:29N 44°24' E 008°53'0 0.0
2017-Dec-06 21:56N 44°24' E 008°53'0 0.0
2017-Dec-06 21:29N 44°24' E 008°53'0 0.0
2017-Dec-06 20:59N 44°24' E 008°53'  
Track history (hours):
 
Tides and Currents Weather Stations Pressure Air Temp Water Temp Dewpoint Dewpoint Depression Visibility Wind Speed Wind Dir Waves Ship Positions

Reecon Whale

Last reported at 2017-Dec-11 12:58 UTC. Time now 2017-Dec-11 13:21 UTC.
Position N 44°16' E 008°27'.

Length 145 m; draft 7.3 m.

Type: Ship (hazmat cat D). MMSI: 256579000.

Date/timePositionNaut miles runAvg speedWind from/ knotsBaromVisibWave heightAir tempDewpointWater temp
2017-Dec-11 12:58N 44°16' E 008°27'0 0.0
2017-Dec-11 12:28N 44°16' E 008°27'0 0.0
2017-Dec-11 11:58N 44°16' E 008°27'0 0.0
2017-Dec-11 11:28N 44°16' E 008°27'0 0.0
2017-Dec-11 10:58N 44°16' E 008°27'0 0.0
2017-Dec-11 10:28N 44°16' E 008°27'0 0.0
2017-Dec-11 09:58N 44°16' E 008°27'0 0.0
2017-Dec-11 09:22N 44°16' E 008°27'0 0.0
2017-Dec-11 08:58N 44°16' E 008°27'0 0.0
2017-Dec-11 08:28N 44°16' E 008°27'1 1.4
2017-Dec-11 08:00N 44°16' E 008°28'2 3.8
2017-Dec-11 07:31N 44°17' E 008°30'0 0.2
2017-Dec-11 07:00N 44°17' E 008°30'1 1.3
2017-Dec-11 06:30N 44°18' E 008°30'0 0.8
2017-Dec-11 05:59N 44°17' E 008°30'0 0.2
2017-Dec-11 05:26N 44°18' E 008°30'0 0.1
2017-Dec-11 04:59N 44°18' E 008°30'0 0.0
2017-Dec-11 04:29N 44°18' E 008°30'0 0.0
2017-Dec-11 03:59N 44°18' E 008°30'0 0.0
2017-Dec-11 03:29N 44°18' E 008°30'0 0.0
2017-Dec-11 02:59N 44°18' E 008°30'0 0.1
2017-Dec-11 02:26N 44°18' E 008°30'0 0.1
2017-Dec-11 01:59N 44°18' E 008°30'0 0.0
2017-Dec-11 01:29N 44°18' E 008°30'0 0.0
2017-Dec-11 00:59N 44°18' E 008°30'0 0.0
2017-Dec-11 00:26N 44°18' E 008°30'0 0.0
2017-Dec-10 23:59N 44°18' E 008°30'0 0.0
2017-Dec-10 23:29N 44°18' E 008°30'0 0.0
2017-Dec-10 22:59N 44°18' E 008°30'0 0.0
2017-Dec-10 22:26N 44°18' E 008°30'0 0.0
2017-Dec-10 21:59N 44°18' E 008°30'0 0.0
2017-Dec-10 21:26N 44°18' E 008°30'0 0.0
2017-Dec-10 20:56N 44°18' E 008°30'0 0.1
2017-Dec-10 20:29N 44°18' E 008°30'0 0.0
2017-Dec-10 19:56N 44°18' E 008°30'0 0.0
2017-Dec-10 19:29N 44°18' E 008°30'0 0.0
2017-Dec-10 18:56N 44°18' E 008°30'0 0.1
2017-Dec-10 18:26N 44°18' E 008°30'0 0.1
2017-Dec-10 17:59N 44°18' E 008°30'0 0.0
2017-Dec-10 17:26N 44°18' E 008°30'0 0.0
2017-Dec-10 16:56N 44°18' E 008°30'0 0.0
2017-Dec-10 16:29N 44°18' E 008°30'0 0.0
2017-Dec-10 15:59N 44°18' E 008°30'0 0.0
2017-Dec-10 15:29N 44°18' E 008°30'0 0.0
2017-Dec-10 14:59N 44°18' E 008°30'0 0.0
2017-Dec-10 14:29N 44°18' E 008°30'0 0.1
2017-Dec-10 13:56N 44°18' E 008°30'0 0.1
2017-Dec-10 13:29N 44°18' E 008°30'0 0.0
2017-Dec-10 12:59N 44°18' E 008°30'0 0.1
2017-Dec-10 12:29N 44°18' E 008°30'0 0.1
2017-Dec-10 11:59N 44°18' E 008°30'0 0.0
2017-Dec-10 11:26N 44°18' E 008°30'0 0.1
2017-Dec-10 10:59N 44°18' E 008°30'2 4.3
2017-Dec-10 10:30N 44°16' E 008°32'510.7
2017-Dec-10 10:00N 44°14' E 008°38'611.3
2017-Dec-10 09:30N 44°12' E 008°46'611.4
2017-Dec-10 09:00N 44°09' E 008°53'611.4
2017-Dec-10 08:30N 44°07' E 009°00'611.4
2017-Dec-10 08:00N 44°05' E 009°08'611.3
2017-Dec-10 07:30N 44°03' E 009°15'611.4
2017-Dec-10 07:00N 44°02' E 009°23'611.4
2017-Dec-10 06:30N 44°01' E 009°30'611.1
2017-Dec-10 06:00N 43°59' E 009°38'611.7
2017-Dec-10 05:30N 43°59' E 009°46'5 9.6
2017-Dec-10 05:00N 44°00' E 009°52'510.8
2017-Dec-10 04:30N 44°06' E 009°51'1 1.5
2017-Dec-10 04:00N 44°06' E 009°51'0 0.0
2017-Dec-10 03:30N 44°06' E 009°51'0 0.0
2017-Dec-10 02:57N 44°06' E 009°51'0 0.0
2017-Dec-10 02:30N 44°06' E 009°51'0 0.0
2017-Dec-10 02:00N 44°06' E 009°51'0 0.0
2017-Dec-10 01:30N 44°06' E 009°51'0 0.0
2017-Dec-10 01:00N 44°06' E 009°51'0 0.0
2017-Dec-10 00:24N 44°06' E 009°51'0 0.0
2017-Dec-10 00:00N 44°06' E 009°51'0 0.0
2017-Dec-09 23:24N 44°06' E 009°51'0 0.0
2017-Dec-09 23:00N 44°06' E 009°51'0 0.0
2017-Dec-09 22:27N 44°06' E 009°51'0 0.0
2017-Dec-09 21:57N 44°06' E 009°51'0 0.0
2017-Dec-09 21:27N 44°06' E 009°51'0 0.0
2017-Dec-09 20:57N 44°06' E 009°51'0 0.0
2017-Dec-09 20:30N 44°06' E 009°51'0 0.0
2017-Dec-09 20:00N 44°06' E 009°51'0 0.0
2017-Dec-09 19:30N 44°06' E 009°51'0 0.0
2017-Dec-09 18:54N 44°06' E 009°51'0 0.1
2017-Dec-09 18:30N 44°06' E 009°51'2 4.0
2017-Dec-09 18:00N 44°04' E 009°51'3 5.1
2017-Dec-09 17:30N 44°02' E 009°54'2 3.0
2017-Dec-09 16:56N 44°01' E 009°55'2 4.8
2017-Dec-09 16:30N 43°60' E 009°54'1 1.2
2017-Dec-09 16:00N 43°59' E 009°53'0 0.0
2017-Dec-09 15:24N 43°59' E 009°53'0 0.0
2017-Dec-09 15:00N 43°59' E 009°53'0 0.0
2017-Dec-09 14:30N 43°59' E 009°53'0 0.1
2017-Dec-09 14:00N 43°59' E 009°53'0 0.0
2017-Dec-09 13:30N 43°59' E 009°53'0 0.0
2017-Dec-09 13:00N 43°59' E 009°53'0 0.0
2017-Dec-09 12:24N 43°59' E 009°53'0 0.0
2017-Dec-09 12:00N 43°59' E 009°53'0 0.0
2017-Dec-09 11:30N 43°59' E 009°53'0 0.0
2017-Dec-09 11:00N 43°59' E 009°53'0 0.0
2017-Dec-09 10:30N 43°59' E 009°53'0 0.0
2017-Dec-09 10:00N 43°59' E 009°53'0 0.0
2017-Dec-09 09:30N 43°59' E 009°53'0 0.2
2017-Dec-09 08:57N 43°59' E 009°53'0 0.0
2017-Dec-09 08:21N 43°59' E 009°53'0 0.1
2017-Dec-09 07:57N 43°59' E 009°53'0 0.1
2017-Dec-09 07:27N 43°59' E 009°53'0 0.1
2017-Dec-09 06:57N 43°59' E 009°53'0 0.0
2017-Dec-09 06:30N 43°59' E 009°53'0 0.0
2017-Dec-09 06:00N 43°59' E 009°53'0 0.0
2017-Dec-09 05:24N 43°59' E 009°53'0 0.1
2017-Dec-09 04:57N 43°59' E 009°53'0 0.1
2017-Dec-09 04:30N 43°59' E 009°53'0 0.1
2017-Dec-09 03:57N 43°59' E 009°53'0 0.1
2017-Dec-09 03:27N 43°59' E 009°53'0 0.0
2017-Dec-09 02:57N 43°59' E 009°53'0 0.0
2017-Dec-09 02:30N 43°59' E 009°53'0 0.1
2017-Dec-09 02:00N 43°59' E 009°53'0 0.1
2017-Dec-09 01:30N 43°59' E 009°53'0 0.0
2017-Dec-09 01:00N 43°59' E 009°53'0 0.2
2017-Dec-09 00:30N 43°59' E 009°53'0 0.1
2017-Dec-09 00:00N 43°60' E 009°53'0 0.0
2017-Dec-08 23:27N 43°59' E 009°53'0 0.0
2017-Dec-08 23:00N 43°60' E 009°53'0 0.1
2017-Dec-08 22:27N 43°60' E 009°53'0 0.0
2017-Dec-08 21:57N 43°60' E 009°53'0 0.1
2017-Dec-08 21:30N 43°60' E 009°53'0 0.1
2017-Dec-08 21:00N 43°60' E 009°53'0 0.0
2017-Dec-08 20:30N 43°60' E 009°53'0 0.1
2017-Dec-08 20:00N 43°59' E 009°53'0 0.1
2017-Dec-08 19:24N 43°59' E 009°53'0 0.0
2017-Dec-08 19:00N 43°59' E 009°53'0 0.0
2017-Dec-08 18:30N 43°59' E 009°53'0 0.0
2017-Dec-08 17:57N 43°59' E 009°53'0 0.1
2017-Dec-08 17:27N 43°59' E 009°53'0 0.0
2017-Dec-08 16:51N 43°59' E 009°53'0 0.0
2017-Dec-08 16:27N 43°59' E 009°53'0 0.1
2017-Dec-08 16:00N 43°59' E 009°53'0 0.1
2017-Dec-08 15:30N 43°59' E 009°53'0 0.2
2017-Dec-08 14:54N 43°59' E 009°53'0 0.0
2017-Dec-08 14:27N 43°59' E 009°53'0 0.1
2017-Dec-08 14:00N 43°59' E 009°53'0 0.2
2017-Dec-08 13:27N 43°59' E 009°52'0 0.1
2017-Dec-08 13:00N 43°59' E 009°52'0 0.4
2017-Dec-08 12:18N 43°59' E 009°52'0 0.1
2017-Dec-08 12:00N 43°59' E 009°52'0 0.1
2017-Dec-08 11:30N 43°59' E 009°52'0 0.1
2017-Dec-08 11:00N 43°59' E 009°52'0 0.1
2017-Dec-08 10:30N 43°59' E 009°52'0 0.2
2017-Dec-08 10:00N 43°59' E 009°52'0 0.2
2017-Dec-08 09:30N 43°59' E 009°52'0 0.1
2017-Dec-08 09:00N 43°59' E 009°52'0 0.0
2017-Dec-08 08:30N 43°59' E 009°52'0 0.1
2017-Dec-08 07:57N 43°59' E 009°52'0 0.1
2017-Dec-08 07:30N 43°59' E 009°52'0 0.1
2017-Dec-08 06:54N 43°59' E 009°52'0 0.1
2017-Dec-08 06:27N 43°59' E 009°52'0 0.1
2017-Dec-08 05:57N 43°59' E 009°52'0 0.1
2017-Dec-08 05:24N 43°59' E 009°52'0 0.1
2017-Dec-08 04:39N 43°59' E 009°52'0 0.2
2017-Dec-08 04:30N 43°59' E 009°51'0 0.1
2017-Dec-08 04:00N 43°59' E 009°51'0 0.1
2017-Dec-08 03:24N 43°59' E 009°51'0 0.1
2017-Dec-08 03:00N 43°59' E 009°51'0 0.1
2017-Dec-08 02:30N 43°59' E 009°51'0 0.1
2017-Dec-08 01:51N 43°59' E 009°51'0 0.6
2017-Dec-08 01:24N 43°58' E 009°51'0 0.0
2017-Dec-08 01:00N 43°58' E 009°51'0 0.1
2017-Dec-08 00:30N 43°59' E 009°51'0 0.1
2017-Dec-08 00:00N 43°58' E 009°51'0 0.0
2017-Dec-07 23:30N 43°58' E 009°51'0 0.1
2017-Dec-07 23:00N 43°58' E 009°51'0 0.1
2017-Dec-07 22:30N 43°58' E 009°51'0 0.0
2017-Dec-07 22:00N 43°58' E 009°51'0 0.1
2017-Dec-07 21:30N 43°58' E 009°51'0 0.0
2017-Dec-07 20:57N 43°58' E 009°51'0 0.0
2017-Dec-07 20:30N 43°58' E 009°51'0 0.0
2017-Dec-07 20:00N 43°58' E 009°51'0 0.0
2017-Dec-07 19:30N 43°58' E 009°51'0 0.0
2017-Dec-07 19:00N 43°58' E 009°51'0 0.2
2017-Dec-07 18:30N 43°58' E 009°51'0 0.0
2017-Dec-07 18:00N 43°58' E 009°51'0 0.0
2017-Dec-07 17:30N 43°58' E 009°51'0 0.0
2017-Dec-07 17:00N 43°58' E 009°51'0 0.0
2017-Dec-07 16:30N 43°58' E 009°51'0 0.0
2017-Dec-07 16:00N 43°58' E 009°51'0 0.2
2017-Dec-07 15:30N 43°58' E 009°51'0 0.0
2017-Dec-07 15:00N 43°58' E 009°51'0 0.5
2017-Dec-07 14:30N 43°58' E 009°51'0 0.1
2017-Dec-07 14:00N 43°58' E 009°51'0 0.1
2017-Dec-07 13:30N 43°58' E 009°51'0 0.3
2017-Dec-07 13:00N 43°58' E 009°51'510.8
2017-Dec-07 12:30N 43°54' E 009°46'510.6
2017-Dec-07 12:00N 43°56' E 009°39'611.5
2017-Dec-07 11:30N 43°60' E 009°33'711.5
2017-Dec-07 10:55N 44°03' E 009°25'511.2
2017-Dec-07 10:30N 44°06' E 009°20'511.0
2017-Dec-07 10:00N 44°09' E 009°14'611.3
2017-Dec-07 09:30N 44°13' E 009°08'611.3
2017-Dec-07 09:00N 44°17' E 009°02'611.1
2017-Dec-07 08:30N 44°21' E 008°57'4 8.4
2017-Dec-07 08:01N 44°24' E 008°53'0 0.3
2017-Dec-07 07:29N 44°24' E 008°53'0 0.0
2017-Dec-07 06:56N 44°24' E 008°53'0 0.0
2017-Dec-07 06:26N 44°24' E 008°53'0 0.0
2017-Dec-07 05:59N 44°24' E 008°53'0 0.0
2017-Dec-07 05:26N 44°24' E 008°53'0 0.0
2017-Dec-07 04:59N 44°24' E 008°53'0 0.0
2017-Dec-07 04:29N 44°24' E 008°53'0 0.0
2017-Dec-07 03:59N 44°24' E 008°53'0 0.0
2017-Dec-07 03:29N 44°24' E 008°53'0 0.0
2017-Dec-07 02:59N 44°24' E 008°53'0 0.0
2017-Dec-07 02:29N 44°24' E 008°53'0 0.0
2017-Dec-07 01:59N 44°24' E 008°53'0 0.0
2017-Dec-07 01:29N 44°24' E 008°53'0 0.0
2017-Dec-07 00:59N 44°24' E 008°53'0 0.0
2017-Dec-07 00:29N 44°24' E 008°53'0 0.0
2017-Dec-06 23:59N 44°24' E 008°53'0 0.0
2017-Dec-06 23:29N 44°24' E 008°53'0 0.0
2017-Dec-06 22:59N 44°24' E 008°53'0 0.0
2017-Dec-06 22:29N 44°24' E 008°53'0 0.0
2017-Dec-06 21:56N 44°24' E 008°53'0 0.0
2017-Dec-06 21:29N 44°24' E 008°53'0 0.0
2017-Dec-06 20:59N 44°24' E 008°53'  

Dump ship's entire track history